aviador You're here:

KLDJ Decoded Metar

in _UNIDENTIFIED
Report Time2017-08-23 02:15:00
UTC Time2017-08-23 02:08:40
Flight Rules vfr VFR
Wind220° at 07 kt
W.Decomp.*RWY 27: 5.6 kt HW 4.2 kt LCW
W.Rank220° ranks 35
Current wind is above 220° avg. (4.1)
Visibility9999 m
Phenomena:N/A
Clouds:N/A
Expected CloudBase > 3,200 ft AGL from Temp-Dew spread
CeilingNone
Temp28°C (ISA +13)
Dew Point20°C (62% RH)
Heat Index29.7°C
QNH1007 hPa
Density Alt2,034 ft
Elevation23 ft
Report Wrong Elevation
Raw Report
METAR KLDJ 230215Z AUTO 22007KT 190V340 10SM CLR 28/20 A2975 RMK AO2
LTG DSNT W THRU NE T02830202=

Extra information for KLDJ:More info

Metar Taf Metar & Taf Last 4 Metars F.Rules Stats Wind Profile Meteogram Temp Stats Metar ALERT Operation Metar Decoded Social comments